Time;durP1;ratioP1;P1;durP2;ratioP2;P2;SDS_P1;SDS_P2;PMS_P1;PMS_P2;Temp;Humidity;BMP_temperature;BMP_pressure;BME280_temperature;BME280_humidity;BME280_pressure;Samples;Min_cycle;Max_cycle;Signal;HPM_P1;HPM_P2
2023/06/25 00:00:33;;;;;;;1999.90;999.90;;;16.30;99.90;;;;;;5038392;28;20034;-79
2023/06/25 00:02:59;;;;;;;1999.90;999.90;;;16.20;99.90;;;;;;5038175;28;20092;-79
2023/06/25 00:05:24;;;;;;;1999.90;999.90;;;16.20;99.90;;;;;;5039502;28;20502;-79
2023/06/25 00:07:50;;;;;;;1999.90;999.90;;;16.20;99.90;;;;;;5039556;28;20480;-79
2023/06/25 00:10:15;;;;;;;1999.90;999.90;;;16.20;99.90;;;;;;5039394;28;20496;-79
2023/06/25 00:12:41;;;;;;;1999.90;999.90;;;16.20;99.90;;;;;;5039456;28;20034;-78
2023/06/25 00:15:09;;;;;;;1999.90;999.90;;;16.10;99.90;;;;;;5039543;28;20487;-79
2023/06/25 00:17:35;;;;;;;1999.90;999.90;;;16.10;99.90;;;;;;5037835;28;20044;-78
2023/06/25 00:20:00;;;;;;;1999.90;999.90;;;16.10;99.90;;;;;;5035468;28;20038;-78
2023/06/25 00:22:27;;;;;;;1999.90;999.90;;;16.10;99.90;;;;;;5037003;28;20034;-78
2023/06/25 00:24:52;;;;;;;1999.90;999.90;;;16.00;99.90;;;;;;5034958;28;20045;-78
2023/06/25 00:27:19;;;;;;;1999.90;999.90;;;16.00;99.90;;;;;;5035009;28;20026;-78
2023/06/25 00:29:45;;;;;;;1999.90;999.90;;;16.00;99.90;;;;;;5035524;28;20038;-78
2023/06/25 00:32:14;;;;;;;1999.90;999.90;;;16.00;99.90;;;;;;5035377;28;20030;-79
2023/06/25 00:34:42;;;;;;;1999.90;999.90;;;16.10;99.90;;;;;;5036749;28;20092;-79
2023/06/25 00:37:18;;;;;;;1999.90;999.90;;;15.90;99.90;;;;;;5035226;28;20064;-78
2023/06/25 00:39:46;;;;;;;1999.90;999.90;;;15.90;99.90;;;;;;5035521;28;20054;-79
2023/06/25 00:42:13;;;;;;;1999.90;999.90;;;15.80;99.90;;;;;;5035200;28;20487;-78
2023/06/25 00:44:41;;;;;;;1999.90;999.90;;;15.60;99.90;;;;;;5035400;28;20125;-79
2023/06/25 00:47:12;;;;;;;1999.90;999.90;;;15.80;99.90;;;;;;5035049;28;20041;-78
2023/06/25 00:49:41;;;;;;;1999.90;999.90;;;15.80;99.90;;;;;;5035314;28;20038;-78
2023/06/25 00:52:08;;;;;;;1999.90;999.90;;;15.70;99.90;;;;;;5035112;28;20030;-79
2023/06/25 00:54:39;;;;;;;1999.90;999.90;;;15.70;99.90;;;;;;5035134;28;20504;-79
2023/06/25 00:57:06;;;;;;;1999.90;999.90;;;15.70;99.90;;;;;;5035434;28;20512;-79
2023/06/25 00:59:37;;;;;;;1999.90;999.90;;;15.60;99.90;;;;;;5036775;28;20038;-78
2023/06/25 01:02:17;;;;;;;1999.90;999.90;;;15.60;99.90;;;;;;5036599;28;20034;-79
2023/06/25 01:04:50;;;;;;;1999.90;999.90;;;15.60;99.90;;;;;;5035107;28;20061;-78
2023/06/25 01:07:18;;;;;;;1999.90;999.90;;;15.60;99.90;;;;;;5036877;28;20034;-78
2023/06/25 01:09:48;;;;;;;1999.90;999.90;;;15.60;99.90;;;;;;5035389;28;20401;-79
2023/06/25 01:12:14;;;;;;;1999.90;999.90;;;15.50;99.90;;;;;;5035287;28;20054;-79
2023/06/25 01:14:40;;;;;;;1999.90;999.90;;;15.50;99.90;;;;;;5035136;28;20504;-78
2023/06/25 01:17:07;;;;;;;1999.90;999.90;;;15.50;99.90;;;;;;5034967;28;20092;-78
2023/06/25 01:19:33;;;;;;;1999.90;999.90;;;15.50;99.90;;;;;;5036655;28;20048;-78
2023/06/25 01:22:00;;;;;;;1999.90;999.90;;;15.40;99.90;;;;;;5034993;28;20034;-78
2023/06/25 01:24:29;;;;;;;1999.90;999.90;;;15.50;99.90;;;;;;5034886;28;20029;-78
2023/06/25 01:26:56;;;;;;;1999.90;999.90;;;15.40;99.90;;;;;;5034692;28;20033;-79
2023/06/25 01:29:22;;;;;;;1999.90;999.90;;;15.40;99.90;;;;;;5034764;28;20411;-79
2023/06/25 01:31:51;;;;;;;1999.90;999.90;;;15.40;99.90;;;;;;5034510;28;20041;-79
2023/06/25 01:34:21;;;;;;;1999.90;999.90;;;15.40;99.90;;;;;;5036874;28;20045;-78
2023/06/25 01:36:49;;;;;;;1999.90;999.90;;;15.30;99.90;;;;;;5035583;28;20033;-79
2023/06/25 01:39:16;;;;;;;1999.90;999.90;;;15.30;99.90;;;;;;5034527;28;20038;-78
2023/06/25 01:41:43;;;;;;;1999.90;999.90;;;15.30;99.90;;;;;;5034451;28;20084;-78
2023/06/25 01:44:11;;;;;;;1999.90;999.90;;;15.20;99.90;;;;;;5034435;28;20061;-79
2023/06/25 01:46:37;;;;;;;1999.90;999.90;;;15.20;99.90;;;;;;5035616;28;20038;-78
2023/06/25 01:49:02;;;;;;;1999.90;999.90;;;15.10;99.90;;;;;;5034337;28;20496;-78
2023/06/25 01:51:31;;;;;;;1999.90;999.90;;;15.10;99.90;;;;;;5035768;28;20499;-78
2023/06/25 01:53:57;;;;;;;1999.90;999.90;;;15.10;99.90;;;;;;5035648;28;20400;-78
2023/06/25 01:56:22;;;;;;;1999.90;999.90;;;15.10;99.90;;;;;;5034374;28;20053;-78
2023/06/25 01:58:50;;;;;;;1999.90;999.90;;;15.10;99.90;;;;;;5035164;28;20045;-79
2023/06/25 02:01:15;;;;;;;1999.90;999.90;;;15.00;99.90;;;;;;5034044;28;20411;-78
2023/06/25 02:03:41;;;;;;;1999.90;999.90;;;14.90;99.90;;;;;;5034148;28;20085;-78
2023/06/25 02:06:06;;;;;;;1999.90;999.90;;;15.00;99.90;;;;;;5035403;28;20038;-78
2023/06/25 02:08:32;;;;;;;1999.90;999.90;;;15.00;99.90;;;;;;5033927;28;20041;-78
2023/06/25 02:10:58;;;;;;;1999.90;999.90;;;15.00;99.90;;;;;;5033927;28;20631;-78
2023/06/25 02:13:24;;;;;;;1999.90;999.90;;;15.00;99.90;;;;;;5033828;28;20177;-78
2023/06/25 02:15:49;;;;;;;1999.90;999.90;;;14.90;99.90;;;;;;5034737;28;20034;-78
2023/06/25 02:18:15;;;;;;;1999.90;999.90;;;14.90;99.90;;;;;;5035170;28;20080;-78
2023/06/25 02:20:40;;;;;;;1999.90;999.90;;;14.90;99.90;;;;;;5035022;28;20034;-78
2023/06/25 02:23:06;;;;;;;1999.90;999.90;;;14.90;99.90;;;;;;5036706;28;20169;-78
2023/06/25 02:25:31;;;;;;;1999.90;999.90;;;14.80;99.90;;;;;;5036056;28;20029;-78
2023/06/25 02:27:57;;;;;;;1999.90;999.90;;;14.70;99.90;;;;;;5035320;28;20109;-78
2023/06/25 02:30:22;;;;;;;1999.90;999.90;;;14.80;99.90;;;;;;5034929;28;20038;-78
2023/06/25 02:32:48;;;;;;;1999.90;999.90;;;14.70;99.90;;;;;;5035876;28;20038;-78
2023/06/25 02:35:13;;;;;;;1999.90;999.90;;;14.80;99.90;;;;;;5034898;28;20077;-78
2023/06/25 02:37:39;;;;;;;1999.90;999.90;;;14.70;99.90;;;;;;5034606;28;20125;-78
2023/06/25 02:40:05;;;;;;;1999.90;999.90;;;14.60;99.90;;;;;;5034331;28;20042;-78
2023/06/25 02:42:31;;;;;;;1999.90;999.90;;;14.60;99.90;;;;;;5033959;28;20029;-78
2023/06/25 02:44:56;;;;;;;1999.90;999.90;;;14.60;99.90;;;;;;5036330;28;20037;-78
2023/06/25 02:47:22;;;;;;;1999.90;999.90;;;14.60;99.90;;;;;;5036658;28;20396;-78
2023/06/25 02:49:47;;;;;;;1999.90;999.90;;;14.50;99.90;;;;;;5035137;28;20037;-78
2023/06/25 02:52:13;;;;;;;1999.90;999.90;;;14.50;99.90;;;;;;5035363;28;20383;-78
2023/06/25 02:54:38;;;;;;;1999.90;999.90;;;14.60;99.90;;;;;;5034093;28;20049;-78
2023/06/25 02:57:04;;;;;;;1999.90;999.90;;;14.50;99.90;;;;;;5034124;28;20030;-77
2023/06/25 02:59:29;;;;;;;1999.90;999.90;;;14.50;99.90;;;;;;5035631;28;20488;-78
2023/06/25 03:01:55;;;;;;;1999.90;999.90;;;14.50;99.90;;;;;;5034147;28;20025;-78
2023/06/25 03:04:20;;;;;;;1999.90;999.90;;;14.50;99.90;;;;;;5034171;28;20499;-78
2023/06/25 03:06:46;;;;;;;1999.90;999.90;;;14.40;99.90;;;;;;5033777;28;20061;-78
2023/06/25 03:09:11;;;;;;;1999.90;999.90;;;14.40;99.90;;;;;;5035254;28;20085;-78
2023/06/25 03:11:37;;;;;;;1999.90;999.90;;;14.50;99.90;;;;;;5037225;28;20030;-78
2023/06/25 03:14:02;;;;;;;1999.90;999.90;;;14.40;99.90;;;;;;5034415;28;20038;-78
2023/06/25 03:16:28;;;;;;;1999.90;999.90;;;14.40;99.90;;;;;;5032531;28;20053;-78
2023/06/25 03:18:54;;;;;;;1999.90;999.90;;;14.30;99.90;;;;;;5035073;28;20065;-78
2023/06/25 03:21:19;;;;;;;1999.90;999.90;;;14.30;99.90;;;;;;5034377;28;20073;-78
2023/06/25 03:23:45;;;;;;;1999.90;999.90;;;14.20;99.90;;;;;;5035106;28;20045;-78
2023/06/25 03:26:10;;;;;;;1999.90;999.90;;;14.10;99.90;;;;;;5036500;28;20030;-78
2023/06/25 03:28:36;;;;;;;1999.90;999.90;;;14.10;99.90;;;;;;5034342;28;20041;-78
2023/06/25 03:31:01;;;;;;;1999.90;999.90;;;14.10;99.90;;;;;;5033383;28;20030;-78
2023/06/25 03:33:27;;;;;;;1999.90;999.90;;;14.10;99.90;;;;;;5033409;28;20081;-78
2023/06/25 03:35:52;;;;;;;1999.90;999.90;;;14.10;99.90;;;;;;5034587;28;20403;-78
2023/06/25 03:38:18;;;;;;;1999.90;999.90;;;14.10;99.90;;;;;;5034589;28;20060;-78
2023/06/25 03:40:43;;;;;;;1999.90;999.90;;;14.20;99.90;;;;;;5033031;28;20037;-78
2023/06/25 03:43:09;;;;;;;1999.90;999.90;;;14.20;99.90;;;;;;5033038;28;20038;-78
2023/06/25 03:45:34;;;;;;;1999.90;999.90;;;14.30;99.90;;;;;;5034271;28;20488;-78
2023/06/25 03:48:00;;;;;;;1999.90;999.90;;;14.30;99.90;;;;;;5033027;28;20032;-78
2023/06/25 03:50:25;;;;;;;1999.90;999.90;;;14.30;99.90;;;;;;5034228;28;20376;-77
2023/06/25 03:52:51;;;;;;;1999.90;999.90;;;14.20;99.90;;;;;;5034011;28;20030;-78
2023/06/25 03:55:16;;;;;;;1999.90;999.90;;;14.20;99.90;;;;;;5034133;28;20068;-78
2023/06/25 03:57:42;;;;;;;1999.90;999.90;;;14.20;99.90;;;;;;5032700;28;20037;-77
2023/06/25 04:00:08;;;;;;;1999.90;999.90;;;14.20;99.90;;;;;;5033995;28;20403;-77
2023/06/25 04:02:34;;;;;;;1999.90;999.90;;;14.20;99.90;;;;;;5037290;28;20116;-78
2023/06/25 04:04:59;;;;;;;1999.90;999.90;;;14.30;99.90;;;;;;5037526;28;20507;-78
2023/06/25 04:07:25;;;;;;;1999.90;999.90;;;14.30;99.90;;;;;;5035798;28;20030;-77
2023/06/25 04:09:50;;;;;;;1999.90;999.90;;;14.40;99.90;;;;;;5037553;28;20037;-77
2023/06/25 04:12:16;;;;;;;1999.90;999.90;;;14.40;99.90;;;;;;5037250;28;20030;-77
2023/06/25 04:14:41;;;;;;;1999.90;999.90;;;14.40;99.90;;;;;;5037368;28;20046;-77
2023/06/25 04:17:07;;;;;;;1999.90;999.90;;;14.40;99.90;;;;;;5036757;28;20125;-77
2023/06/25 04:19:32;;;;;;;1999.90;999.90;;;14.40;99.90;;;;;;5037050;28;20073;-77
2023/06/25 04:21:58;;;;;;;1999.90;999.90;;;14.40;99.90;;;;;;5037267;28;20069;-77
2023/06/25 04:24:23;;;;;;;1999.90;999.90;;;14.50;99.90;;;;;;5037196;28;20403;-77
2023/06/25 04:26:49;;;;;;;1999.90;999.90;;;14.50;99.90;;;;;;5037083;28;20040;-77
2023/06/25 04:29:14;;;;;;;1999.90;999.90;;;14.50;99.90;;;;;;5035864;28;20048;-77
2023/06/25 04:31:40;;;;;;;1999.90;999.90;;;14.50;99.90;;;;;;5035475;28;20029;-77
2023/06/25 04:34:06;;;;;;;1999.90;999.90;;;14.50;99.90;;;;;;5037099;28;20046;-77
2023/06/25 04:36:32;;;;;;;1999.90;999.90;;;14.50;99.90;;;;;;5036845;28;20021;-78
2023/06/25 04:38:57;;;;;;;1999.90;999.90;;;14.50;99.90;;;;;;5037108;28;20037;-78
2023/06/25 04:41:23;;;;;;;1999.90;999.90;;;14.50;99.90;;;;;;5035207;28;20034;-77
2023/06/25 04:43:48;;;;;;;1999.90;999.90;;;14.60;99.90;;;;;;5036933;28;20491;-77
2023/06/25 04:46:14;;;;;;;1999.90;999.90;;;14.60;99.90;;;;;;5036623;28;20074;-78
2023/06/25 04:48:44;;;;;;;1999.90;999.90;;;14.60;99.90;;;;;;5036822;28;20038;-78
2023/06/25 04:51:09;;;;;;;1999.90;999.90;;;14.60;99.90;;;;;;5036336;28;20075;-77
2023/06/25 04:53:35;;;;;;;1999.90;999.90;;;14.50;99.90;;;;;;5035165;28;20045;-77
2023/06/25 04:56:00;;;;;;;1999.90;999.90;;;14.60;99.90;;;;;;5034781;28;20522;-78
2023/06/25 04:58:26;;;;;;;1999.90;999.90;;;14.60;99.90;;;;;;5035153;28;20041;-77
2023/06/25 05:00:51;;;;;;;1999.90;999.90;;;14.60;99.90;;;;;;5034946;28;20030;-77
2023/06/25 05:03:17;;;;;;;1999.90;999.90;;;14.70;99.90;;;;;;5036263;28;20038;-77
2023/06/25 05:05:42;;;;;;;1999.90;999.90;;;14.80;99.90;;;;;;5036256;28;20040;-78
2023/06/25 05:08:08;;;;;;;1999.90;999.90;;;14.80;99.90;;;;;;5036301;28;20030;-77
2023/06/25 05:10:34;;;;;;;1999.90;999.90;;;14.90;99.90;;;;;;5036390;28;20030;-78
2023/06/25 05:13:00;;;;;;;1999.90;999.90;;;15.00;99.90;;;;;;5034115;28;20045;-78
2023/06/25 05:15:25;;;;;;;1999.90;999.90;;;15.10;99.90;;;;;;5034240;28;20045;-78
2023/06/25 05:17:51;;;;;;;1999.90;999.90;;;15.20;99.90;;;;;;5037155;28;20056;-78
2023/06/25 05:20:17;;;;;;;1999.90;999.90;;;15.30;99.90;;;;;;5036555;28;20359;-79
2023/06/25 05:22:42;;;;;;;1999.90;999.90;;;15.40;99.90;;;;;;5035842;28;20104;-78
2023/06/25 05:25:08;;;;;;;1999.90;999.90;;;15.50;99.90;;;;;;5036232;28;20480;-78
2023/06/25 05:27:34;;;;;;;1999.90;999.90;;;15.60;99.90;;;;;;5036084;28;20549;-78
2023/06/25 05:29:59;;;;;;;1999.90;999.90;;;15.80;99.90;;;;;;5036839;28;20036;-78
2023/06/25 05:32:25;;;;;;;1999.90;999.90;;;15.90;99.90;;;;;;5036657;28;20502;-78
2023/06/25 05:34:50;;;;;;;1999.90;999.90;;;16.00;99.90;;;;;;5036098;28;20037;-78
2023/06/25 05:37:16;;;;;;;1999.90;999.90;;;16.10;99.90;;;;;;5035854;28;20068;-78
2023/06/25 05:39:41;;;;;;;1999.90;999.90;;;16.30;99.90;;;;;;5035954;28;20034;-78
2023/06/25 05:42:07;;;;;;;1999.90;999.90;;;16.40;99.90;;;;;;5035771;28;20048;-78
2023/06/25 05:44:32;;;;;;;1999.90;999.90;;;16.60;99.90;;;;;;5034443;28;20117;-78
2023/06/25 05:46:58;;;;;;;1999.90;999.90;;;16.70;99.90;;;;;;5034900;28;20357;-78
2023/06/25 05:49:23;;;;;;;1999.90;999.90;;;16.80;99.90;;;;;;5035616;28;20128;-78
2023/06/25 05:51:50;;;;;;;1999.90;999.90;;;17.00;99.90;;;;;;5035825;28;20080;-78
2023/06/25 05:54:15;;;;;;;1999.90;999.90;;;17.10;99.90;;;;;;5035030;28;20045;-79
2023/06/25 05:56:41;;;;;;;1999.90;999.90;;;17.20;99.90;;;;;;5038118;28;20036;-78
2023/06/25 05:59:06;;;;;;;1999.90;999.90;;;17.40;99.90;;;;;;5035636;28;20049;-78
2023/06/25 06:01:32;;;;;;;1999.90;999.90;;;17.50;99.90;;;;;;5036274;28;20542;-78
2023/06/25 06:03:57;;;;;;;1999.90;999.90;;;17.50;99.90;;;;;;5036319;28;20046;-78
2023/06/25 06:06:24;;;;;;;1999.90;999.90;;;17.70;99.90;;;;;;5035346;28;20121;-78
2023/06/25 06:08:50;;;;;;;1999.90;999.90;;;17.70;99.90;;;;;;5035862;28;20030;-77
2023/06/25 06:11:16;;;;;;;1999.90;999.90;;;17.90;99.90;;;;;;5033854;28;20039;-78
2023/06/25 06:13:42;;;;;;;1999.90;999.90;;;18.00;99.90;;;;;;5034056;28;20034;-78
2023/06/25 06:16:08;;;;;;;1999.90;999.90;;;18.20;99.90;;;;;;5033817;28;20034;-77
2023/06/25 06:18:34;;;;;;;1999.90;999.90;;;18.30;99.90;;;;;;5033979;28;20034;-77
2023/06/25 06:20:59;;;;;;;1999.90;999.90;;;18.50;99.90;;;;;;5035252;28;20384;-77
2023/06/25 06:23:25;;;;;;;1999.90;999.90;;;18.60;99.90;;;;;;5032728;28;20506;-77
2023/06/25 06:25:51;;;;;;;1999.90;999.90;;;18.70;99.90;;;;;;5033642;28;20029;-77
2023/06/25 06:28:16;;;;;;;1999.90;999.90;;;18.80;99.90;;;;;;5033860;28;20098;-77
2023/06/25 06:30:42;;;;;;;1999.90;999.90;;;19.00;99.90;;;;;;5035257;28;20073;-76
2023/06/25 06:33:07;;;;;;;1999.90;999.90;;;19.00;99.90;;;;;;5035067;28;20504;-77
2023/06/25 06:35:33;;;;;;;1999.90;999.90;;;19.00;99.90;;;;;;5034886;28;20100;-77
2023/06/25 06:37:59;;;;;;;1999.90;999.90;;;19.20;99.90;;;;;;5034962;28;20041;-77
2023/06/25 06:40:24;;;;;;;1999.90;999.90;;;19.20;99.90;;;;;;5033846;28;20038;-77
2023/06/25 06:42:50;;;;;;;1999.90;999.90;;;19.40;99.90;;;;;;5033243;28;20026;-77
2023/06/25 06:45:15;;;;;;;1999.90;999.90;;;19.50;99.90;;;;;;5033533;28;20479;-77
2023/06/25 06:47:42;;;;;;;1999.90;999.90;;;19.60;99.90;;;;;;5035043;28;20480;-77
2023/06/25 06:50:08;;;;;;;1999.90;999.90;;;19.70;99.90;;;;;;5034900;28;20129;-77
2023/06/25 06:52:34;;;;;;;1999.90;999.90;;;19.90;99.90;;;;;;5034611;28;20575;-77
2023/06/25 06:54:59;;;;;;;1999.90;999.90;;;20.10;99.90;;;;;;5033463;28;20408;-77
2023/06/25 06:57:25;;;;;;;1999.90;999.90;;;20.20;99.90;;;;;;5033357;28;20034;-77
2023/06/25 06:59:50;;;;;;;1999.90;999.90;;;20.30;99.90;;;;;;5034703;28;20042;-77
2023/06/25 07:02:16;;;;;;;1999.90;999.90;;;20.50;99.90;;;;;;5035103;28;20038;-77
2023/06/25 07:04:41;;;;;;;1999.90;999.90;;;20.60;99.90;;;;;;5035170;28;20046;-77
2023/06/25 07:07:07;;;;;;;1999.90;999.90;;;20.90;99.70;;;;;;5034425;28;20093;-77
2023/06/25 07:09:32;;;;;;;1999.90;999.90;;;21.00;98.80;;;;;;5033273;28;20600;-77
2023/06/25 07:11:58;;;;;;;1999.90;999.90;;;21.20;98.70;;;;;;5034281;28;20443;-77
2023/06/25 07:14:23;;;;;;;1999.90;999.90;;;21.40;97.90;;;;;;5034247;28;20415;-77
2023/06/25 07:16:49;;;;;;;1999.90;999.90;;;21.60;98.20;;;;;;5034787;28;20045;-77
2023/06/25 07:19:14;;;;;;;1999.90;999.90;;;21.80;97.00;;;;;;5033524;28;20128;-77
2023/06/25 07:21:40;;;;;;;1999.90;999.90;;;22.10;96.50;;;;;;5034532;28;20030;-77
2023/06/25 07:24:06;;;;;;;1999.90;999.90;;;22.30;94.90;;;;;;5034780;28;20049;-77
2023/06/25 07:26:31;;;;;;;1999.90;999.90;;;22.50;94.60;;;;;;5035537;28;20836;-77
2023/06/25 07:28:57;;;;;;;1999.90;999.90;;;22.70;94.80;;;;;;5035485;28;20038;-77
2023/06/25 07:31:22;;;;;;;1999.90;999.90;;;22.80;94.40;;;;;;5035747;28;20484;-77
2023/06/25 07:33:48;;;;;;;1999.90;999.90;;;23.00;93.70;;;;;;5036063;28;20046;-77
2023/06/25 07:36:14;;;;;;;1999.90;999.90;;;23.20;93.50;;;;;;5037094;28;20030;-77
2023/06/25 07:38:39;;;;;;;1999.90;999.90;;;23.30;92.60;;;;;;5036827;28;20037;-77
2023/06/25 07:41:05;;;;;;;1999.90;999.90;;;23.50;92.20;;;;;;5039255;28;20034;-77
2023/06/25 07:43:30;;;;;;;1999.90;999.90;;;23.70;92.30;;;;;;5038416;28;20411;-77
2023/06/25 07:45:56;;;;;;;1999.90;999.90;;;24.00;91.20;;;;;;5037838;28;20498;-77
2023/06/25 07:48:21;;;;;;;1999.90;999.90;;;24.30;90.90;;;;;;5036951;28;20038;-77
2023/06/25 07:50:47;;;;;;;1999.90;999.90;;;24.40;90.40;;;;;;5037896;28;20037;-77
2023/06/25 07:53:12;;;;;;;1999.90;999.90;;;24.50;90.30;;;;;;5037230;28;20041;-78
2023/06/25 07:55:40;;;;;;;1999.90;999.90;;;24.80;89.40;;;;;;5036871;28;20041;-78
2023/06/25 07:58:07;;;;;;;1999.90;999.90;;;25.00;88.50;;;;;;5040411;28;20018;-78
2023/06/25 08:00:33;;;;;;;1999.90;999.90;;;25.40;87.30;;;;;;5038254;28;20040;-78
2023/06/25 08:02:59;;;;;;;1999.90;999.90;;;25.50;88.60;;;;;;5038481;28;20113;-79
2023/06/25 08:05:24;;;;;;;1999.90;999.90;;;25.30;86.40;;;;;;5038401;28;20087;-79
2023/06/25 08:07:50;;;;;;;1999.90;999.90;;;25.60;85.50;;;;;;5042710;28;20101;-79
2023/06/25 08:10:15;;;;;;;1999.90;999.90;;;25.80;83.40;;;;;;5040803;28;20045;-81
2023/06/25 08:12:41;;;;;;;1999.90;999.90;;;25.60;83.60;;;;;;5037453;28;20045;-78
2023/06/25 08:15:07;;;;;;;1999.90;999.90;;;25.60;82.70;;;;;;5049380;28;20130;-78
2023/06/25 08:17:32;;;;;;;1999.90;999.90;;;26.00;82.50;;;;;;5052744;28;20033;-82
2023/06/25 08:19:58;;;;;;;1999.90;999.90;;;26.30;80.60;;;;;;5053585;28;20056;-78
2023/06/25 08:22:24;;;;;;;1999.90;999.90;;;26.30;78.50;;;;;;5060121;28;20057;-82
2023/06/25 08:24:50;;;;;;;1999.90;999.90;;;26.40;78.70;;;;;;5058713;28;20034;-80
2023/06/25 08:27:15;;;;;;;1999.90;999.90;;;26.30;79.00;;;;;;5062308;28;20033;-80
2023/06/25 08:29:41;;;;;;;1999.90;999.90;;;26.40;76.90;;;;;;5052473;28;20037;-81
2023/06/25 08:32:07;;;;;;;1999.90;999.90;;;26.50;75.90;;;;;;5058424;28;20030;-81
2023/06/25 08:34:33;;;;;;;1999.90;999.90;;;26.80;75.00;;;;;;5059005;28;20033;-81
2023/06/25 08:36:58;;;;;;;1999.90;999.90;;;27.00;75.30;;;;;;5052815;28;20036;-80
2023/06/25 08:39:24;;;;;;;1999.90;999.90;;;27.10;74.30;;;;;;5059878;28;20391;-82
2023/06/25 08:41:50;;;;;;;1999.90;999.90;;;27.30;74.80;;;;;;5052707;28;20033;-82
2023/06/25 08:44:16;;;;;;;1999.90;999.90;;;27.50;72.10;;;;;;5042646;28;20034;-83
2023/06/25 08:46:49;;;;;;;1999.90;999.90;;;27.70;72.00;;;;;;5051562;28;20029;-82
2023/06/25 08:49:16;;;;;;;1999.90;999.90;;;27.90;68.60;;;;;;5051691;28;20487;-82
2023/06/25 08:51:42;;;;;;;1999.90;999.90;;;28.00;68.00;;;;;;5051363;28;20038;-82
2023/06/25 08:54:08;;;;;;;1999.90;999.90;;;28.30;69.40;;;;;;5060309;28;20041;-82
2023/06/25 08:56:34;;;;;;;1999.90;999.90;;;28.10;62.00;;;;;;5052515;28;20081;-82
2023/06/25 08:59:00;;;;;;;1999.90;999.90;;;28.30;63.90;;;;;;5046034;28;20155;-82
2023/06/25 09:01:26;;;;;;;1999.90;999.90;;;28.60;62.00;;;;;;5044663;28;20476;-81
2023/06/25 09:03:53;;;;;;;1999.90;999.90;;;28.80;62.00;;;;;;5058607;28;20046;-81
2023/06/25 09:06:19;;;;;;;1999.90;999.90;;;28.70;60.80;;;;;;5065715;28;20049;-81
2023/06/25 09:08:44;;;;;;;1999.90;999.90;;;28.80;61.30;;;;;;5061873;28;20087;-79
2023/06/25 09:11:11;;;;;;;1999.90;999.90;;;28.90;59.40;;;;;;5051870;28;20069;-82
2023/06/25 09:13:38;;;;;;;1999.90;999.90;;;28.80;61.80;;;;;;5046129;28;20034;-80
2023/06/25 09:16:06;;;;;;;1999.90;999.90;;;28.90;60.40;;;;;;5052178;28;20061;-82
2023/06/25 09:18:32;;;;;;;1999.90;999.90;;;29.00;61.60;;;;;;5054102;28;20034;-80
2023/06/25 09:21:02;;;;;;;1999.90;999.90;;;29.00;60.60;;;;;;5059551;28;20045;-76
2023/06/25 09:23:28;;;;;;;1999.90;999.90;;;29.40;59.30;;;;;;5035679;28;20085;-80
2023/06/25 09:25:53;;;;;;;1999.90;999.90;;;29.20;59.00;;;;;;5041646;28;20061;-78
2023/06/25 09:28:19;;;;;;;1999.90;999.90;;;29.40;60.00;;;;;;5059365;28;20044;-79
2023/06/25 09:30:46;;;;;;;1999.90;999.90;;;29.60;59.80;;;;;;5059595;28;20072;-79
2023/06/25 09:33:13;;;;;;;1999.90;999.90;;;29.50;59.10;;;;;;5046979;28;20038;-73
2023/06/25 09:35:39;;;;;;;1999.90;999.90;;;29.70;60.80;;;;;;5053941;28;20041;-79
2023/06/25 09:38:05;;;;;;;1999.90;999.90;;;29.40;58.70;;;;;;5044832;28;20036;-77
2023/06/25 09:40:30;;;;;;;1999.90;999.90;;;29.40;59.10;;;;;;5045067;28;20041;-81
2023/06/25 09:42:58;;;;;;;1999.90;999.90;;;29.80;59.30;;;;;;5040947;28;20026;-77
2023/06/25 09:45:25;;;;;;;1999.90;999.90;;;29.90;58.80;;;;;;5058827;28;20034;-79
2023/06/25 09:47:52;;;;;;;1999.90;999.90;;;29.90;58.80;;;;;;5054890;28;20037;-78
2023/06/25 09:50:38;;;;;;;1999.90;999.90;;;29.50;57.20;;;;;;5042780;28;20041;-79
2023/06/25 09:53:07;;;;;;;1999.90;999.90;;;29.50;59.00;;;;;;5035933;28;20018;-78
2023/06/25 09:55:35;;;;;;;1999.90;999.90;;;29.80;58.30;;;;;;5035584;28;20045;-79
2023/06/25 09:58:01;;;;;;;1999.90;999.90;;;30.10;57.70;;;;;;5053986;28;20061;-78
2023/06/25 10:00:28;;;;;;;1999.90;999.90;;;30.10;59.40;;;;;;5054309;28;20057;-79
2023/06/25 10:02:54;;;;;;;1999.90;999.90;;;30.00;58.10;;;;;;5056545;28;20068;-80
2023/06/25 10:05:19;;;;;;;1999.90;999.90;;;30.00;58.30;;;;;;5050262;28;20076;-79
2023/06/25 10:07:47;;;;;;;1999.90;999.90;;;30.10;57.80;;;;;;5056452;28;20037;-81
2023/06/25 10:10:26;;;;;;;1999.90;999.90;;;30.40;59.80;;;;;;5043230;28;20040;-81
2023/06/25 10:12:52;;;;;;;1999.90;999.90;;;30.60;57.40;;;;;;5040472;28;20033;-80
2023/06/25 10:15:32;;;;;;;1999.90;999.90;;;30.80;57.00;;;;;;5040019;28;20046;-79
2023/06/25 10:18:00;;;;;;;1999.90;999.90;;;31.00;57.10;;;;;;5049674;28;20103;-81
2023/06/25 10:20:30;;;;;;;1999.90;999.90;;;31.10;54.80;;;;;;5035944;28;20109;-79
2023/06/25 10:23:09;;;;;;;1999.90;999.90;;;30.70;57.70;;;;;;5039501;28;20107;-79
2023/06/25 10:25:36;;;;;;;1999.90;999.90;;;31.00;56.60;;;;;;5058096;28;20128;-79
2023/06/25 10:28:04;;;;;;;1999.90;999.90;;;31.30;55.70;;;;;;5057874;28;20030;-78
2023/06/25 10:30:55;;;;;;;1999.90;999.90;;;31.10;56.70;;;;;;5048042;28;20033;-78
2023/06/25 10:33:22;;;;;;;1999.90;999.90;;;31.00;56.10;;;;;;5049390;28;20129;-77
2023/06/25 10:35:54;;;;;;;1999.90;999.90;;;31.00;55.50;;;;;;5048481;28;20064;-77
2023/06/25 10:38:20;;;;;;;1999.90;999.90;;;31.00;55.80;;;;;;5043691;28;20045;-78
2023/06/25 10:40:46;;;;;;;1999.90;999.90;;;31.30;55.60;;;;;;5046830;28;20037;-77
2023/06/25 10:43:17;;;;;;;1999.90;999.90;;;31.10;55.70;;;;;;5041310;28;20491;-77
2023/06/25 10:45:56;;;;;;;1999.90;999.90;;;31.20;55.70;;;;;;5046183;28;20073;-78
2023/06/25 10:48:23;;;;;;;1999.90;999.90;;;31.30;56.50;;;;;;5047749;28;20037;-77
2023/06/25 10:50:51;;;;;;;1999.90;999.90;;;31.60;55.10;;;;;;5056597;28;20030;-79
2023/06/25 10:53:19;;;;;;;1999.90;999.90;;;32.10;54.40;;;;;;5044678;28;20176;-77
2023/06/25 10:55:47;;;;;;;1999.90;999.90;;;32.00;54.60;;;;;;5050010;28;20490;-77
2023/06/25 10:58:17;;;;;;;1999.90;999.90;;;31.80;54.50;;;;;;5041748;28;20029;-77
2023/06/25 11:00:44;;;;;;;1999.90;999.90;;;31.70;53.10;;;;;;5045668;28;20869;-77
2023/06/25 11:03:10;;;;;;;1999.90;999.90;;;31.80;54.50;;;;;;5034259;28;20038;-77
2023/06/25 11:05:40;;;;;;;1999.90;999.90;;;31.90;52.50;;;;;;5035454;28;20153;-78
2023/06/25 11:08:09;;;;;;;1999.90;999.90;;;31.80;52.40;;;;;;5049729;28;20037;-77
2023/06/25 11:10:37;;;;;;;1999.90;999.90;;;32.00;53.80;;;;;;5049043;28;20046;-78
2023/06/25 11:13:03;;;;;;;1999.90;999.90;;;31.90;54.20;;;;;;5052532;28;20029;-77
2023/06/25 11:15:33;;;;;;;1999.90;999.90;;;32.20;53.80;;;;;;5051404;28;21199;-77
2023/06/25 11:17:59;;;;;;;1999.90;999.90;;;32.50;52.40;;;;;;5052936;28;20431;-77
2023/06/25 11:20:27;;;;;;;1999.90;999.90;;;32.10;52.50;;;;;;5052618;28;20051;-77
2023/06/25 11:22:55;;;;;;;1999.90;999.90;;;32.20;52.60;;;;;;5045613;28;20060;-76
2023/06/25 11:25:20;;;;;;;1999.90;999.90;;;32.00;53.60;;;;;;5038618;28;20069;-77
2023/06/25 11:27:47;;;;;;;1999.90;999.90;;;32.10;53.40;;;;;;5043729;28;20502;-77
2023/06/25 11:30:12;;;;;;;1999.90;999.90;;;32.50;52.40;;;;;;5038135;28;20038;-77
2023/06/25 11:32:41;;;;;;;1999.90;999.90;;;32.60;50.90;;;;;;5044855;28;20368;-77
2023/06/25 11:35:12;;;;;;;1999.90;999.90;;;32.80;51.60;;;;;;5047049;28;20543;-77
2023/06/25 11:37:45;;;;;;;1999.90;999.90;;;32.50;51.10;;;;;;5052990;28;20125;-76
2023/06/25 11:40:25;;;;;;;1999.90;999.90;;;32.60;51.40;;;;;;5044182;28;20075;-77
2023/06/25 11:42:51;;;;;;;1999.90;999.90;;;32.90;50.50;;;;;;5058118;28;20037;-79
2023/06/25 11:45:17;;;;;;;1999.90;999.90;;;32.90;52.60;;;;;;5057287;28;20049;-79
2023/06/25 11:47:53;;;;;;;1999.90;999.90;;;32.70;50.50;;;;;;5054323;28;20029;-80
2023/06/25 11:50:26;;;;;;;1999.90;999.90;;;32.50;50.20;;;;;;5050470;28;20033;-78
2023/06/25 11:52:53;;;;;;;1999.90;999.90;;;32.70;52.90;;;;;;5040210;28;20026;-80
2023/06/25 11:55:21;;;;;;;1999.90;999.90;;;33.00;52.00;;;;;;5049575;28;20472;-80